KORD/ORD METAR and TAF weather

Enter ICAO airport designator
Station Type Date Time Source
KORD METAR 2020/03/28 13:51 UTC NOAA

KORD 281351Z 04010KT 8SM OVC004 08/06 A2971 RMK AO2 RAE22 TSB1255E13 SLP062 P0018 T00780061 $


Station Type Date Time Source
KORD Decoded METAR 2020/03/28 13:51 UTC NOAA

CHICAGO O'HARE INTERNATIONAL, IL, United States (KORD) 41-59N 087-55W 200M
Mar 28, 2020 - 09:51 AM EDT / 2020.03.28 1351 UTC
Wind: from the NE (040 degrees) at 12 MPH (10 KT):0
Visibility: 8 mile(s):0
Sky conditions: overcast
Precipitation last hour: 0.18 inches
Temperature: 46.0 F (7.8 C)
Dew Point: 43.0 F (6.1 C)
Relative Humidity: 88%
Pressure (altimeter): 29.71 in. Hg (1006 hPa)
ob: KORD 281351Z 04010KT 8SM OVC004 08/06 A2971 RMK AO2 RAE22 TSB1255E13 SLP062 P0018 T00780061
cycle: 14

Station Type Date Time Source
KORD TAF 2020/03/28 12:22 UTC NOAA

TAF KORD 281120Z 2812/2918 07010KT 5SM -SHRA BR OVC004
TEMPO 2812/2813 2SM TSRA BR SCT004 OVC010CB
FM281400 08010KT 5SM BR OVC005
FM281800 10012KT 6SM -SHRA BR BKN006 OVC010
FM290000 12012G17KT 5SM BR BKN006 OVC010
TEMPO 2901/2904 21020G35KT 1SM +TSRA BKN010 OVC020CB
FM290400 21015G25KT P6SM SCT015
FM290900 22020G32KT P6SM BKN020
FM291400 23024G36KT P6SM BKN025

Example: see airport list